sensor_id;sensor_type;location;lat;lon;timestamp;P1;durP1;ratioP1;P2;durP2;ratioP2
10013;SDS011;45684;48.358;10.746;2023-06-10T00:00:46;10.17;;;9.50;;
10013;SDS011;45684;48.358;10.746;2023-06-10T00:03:14;10.53;;;9.83;;
10013;SDS011;45684;48.358;10.746;2023-06-10T00:05:42;10.37;;;9.63;;
10013;SDS011;45684;48.358;10.746;2023-06-10T00:08:09;10.90;;;10.30;;
10013;SDS011;45684;48.358;10.746;2023-06-10T00:10:38;11.37;;;10.67;;
10013;SDS011;45684;48.358;10.746;2023-06-10T00:13:06;11.20;;;10.43;;
10013;SDS011;45684;48.358;10.746;2023-06-10T00:15:35;12.03;;;11.30;;
10013;SDS011;45684;48.358;10.746;2023-06-10T00:18:04;15.70;;;14.73;;
10013;SDS011;45684;48.358;10.746;2023-06-10T00:20:32;16.87;;;15.93;;
10013;SDS011;45684;48.358;10.746;2023-06-10T00:23:04;15.37;;;14.47;;
10013;SDS011;45684;48.358;10.746;2023-06-10T00:25:34;22.10;;;21.03;;
10013;SDS011;45684;48.358;10.746;2023-06-10T00:28:02;27.63;;;26.30;;
10013;SDS011;45684;48.358;10.746;2023-06-10T00:30:30;49.53;;;47.43;;
10013;SDS011;45684;48.358;10.746;2023-06-10T00:32:58;47.87;;;45.87;;
10013;SDS011;45684;48.358;10.746;2023-06-10T00:35:27;59.23;;;56.80;;
10013;SDS011;45684;48.358;10.746;2023-06-10T00:37:55;81.47;;;78.20;;
10013;SDS011;45684;48.358;10.746;2023-06-10T00:40:23;93.07;;;89.37;;
10013;SDS011;45684;48.358;10.746;2023-06-10T00:42:51;70.97;;;68.10;;
10013;SDS011;45684;48.358;10.746;2023-06-10T00:45:20;88.57;;;84.97;;
10013;SDS011;45684;48.358;10.746;2023-06-10T00:47:48;98.07;;;94.17;;
10013;SDS011;45684;48.358;10.746;2023-06-10T00:50:16;88.00;;;84.40;;
10013;SDS011;45684;48.358;10.746;2023-06-10T00:52:46;94.87;;;91.00;;
10013;SDS011;45684;48.358;10.746;2023-06-10T00:55:15;98.03;;;94.03;;
10013;SDS011;45684;48.358;10.746;2023-06-10T00:57:44;101.17;;;97.17;;
10013;SDS011;45684;48.358;10.746;2023-06-10T01:00:14;95.83;;;91.93;;
10013;SDS011;45684;48.358;10.746;2023-06-10T01:02:43;112.57;;;107.97;;
10013;SDS011;45684;48.358;10.746;2023-06-10T01:05:11;100.47;;;96.33;;
10013;SDS011;45684;48.358;10.746;2023-06-10T01:07:40;107.00;;;102.73;;
10013;SDS011;45684;48.358;10.746;2023-06-10T01:10:17;107.77;;;103.57;;
10013;SDS011;45684;48.358;10.746;2023-06-10T01:12:52;109.13;;;104.87;;
10013;SDS011;45684;48.358;10.746;2023-06-10T01:15:29;96.50;;;92.47;;
10013;SDS011;45684;48.358;10.746;2023-06-10T01:17:58;98.70;;;94.77;;
10013;SDS011;45684;48.358;10.746;2023-06-10T01:20:29;79.97;;;76.67;;
10013;SDS011;45684;48.358;10.746;2023-06-10T01:23:00;79.80;;;76.47;;
10013;SDS011;45684;48.358;10.746;2023-06-10T01:25:29;83.93;;;80.53;;
10013;SDS011;45684;48.358;10.746;2023-06-10T01:28:01;73.80;;;70.70;;
10013;SDS011;45684;48.358;10.746;2023-06-10T01:30:38;62.90;;;60.10;;
10013;SDS011;45684;48.358;10.746;2023-06-10T01:33:12;67.53;;;64.70;;
10013;SDS011;45684;48.358;10.746;2023-06-10T01:35:44;65.83;;;62.97;;
10013;SDS011;45684;48.358;10.746;2023-06-10T01:38:15;63.47;;;60.77;;
10013;SDS011;45684;48.358;10.746;2023-06-10T01:40:46;58.83;;;56.27;;
10013;SDS011;45684;48.358;10.746;2023-06-10T01:43:16;61.43;;;58.83;;
10013;SDS011;45684;48.358;10.746;2023-06-10T01:45:44;49.20;;;47.03;;
10013;SDS011;45684;48.358;10.746;2023-06-10T01:48:12;46.23;;;44.13;;
10013;SDS011;45684;48.358;10.746;2023-06-10T01:50:41;43.00;;;40.97;;
10013;SDS011;45684;48.358;10.746;2023-06-10T01:53:10;56.20;;;53.70;;
10013;SDS011;45684;48.358;10.746;2023-06-10T01:55:39;51.10;;;48.93;;
10013;SDS011;45684;48.358;10.746;2023-06-10T01:58:07;42.87;;;40.90;;
10013;SDS011;45684;48.358;10.746;2023-06-10T02:00:35;41.83;;;39.83;;
10013;SDS011;45684;48.358;10.746;2023-06-10T02:03:02;36.77;;;35.03;;
10013;SDS011;45684;48.358;10.746;2023-06-10T02:05:30;47.90;;;45.83;;
10013;SDS011;45684;48.358;10.746;2023-06-10T02:07:58;35.80;;;34.07;;
10013;SDS011;45684;48.358;10.746;2023-06-10T02:10:27;41.83;;;40.00;;
10013;SDS011;45684;48.358;10.746;2023-06-10T02:12:57;39.87;;;38.10;;
10013;SDS011;45684;48.358;10.746;2023-06-10T02:15:25;47.37;;;45.23;;
10013;SDS011;45684;48.358;10.746;2023-06-10T02:17:53;45.20;;;43.17;;
10013;SDS011;45684;48.358;10.746;2023-06-10T02:20:22;55.30;;;52.83;;
10013;SDS011;45684;48.358;10.746;2023-06-10T02:22:50;54.13;;;51.80;;
10013;SDS011;45684;48.358;10.746;2023-06-10T02:25:18;89.57;;;85.90;;
10013;SDS011;45684;48.358;10.746;2023-06-10T02:27:45;92.13;;;88.43;;
10013;SDS011;45684;48.358;10.746;2023-06-10T02:30:15;98.93;;;94.93;;
10013;SDS011;45684;48.358;10.746;2023-06-10T02:32:43;97.93;;;93.97;;
10013;SDS011;45684;48.358;10.746;2023-06-10T02:35:16;96.83;;;92.83;;
10013;SDS011;45684;48.358;10.746;2023-06-10T02:37:44;100.63;;;96.50;;
10013;SDS011;45684;48.358;10.746;2023-06-10T02:40:12;100.00;;;95.90;;
10013;SDS011;45684;48.358;10.746;2023-06-10T02:42:39;93.57;;;89.70;;
10013;SDS011;45684;48.358;10.746;2023-06-10T02:45:07;103.60;;;99.40;;
10013;SDS011;45684;48.358;10.746;2023-06-10T02:47:41;100.17;;;96.00;;
10013;SDS011;45684;48.358;10.746;2023-06-10T02:50:10;96.63;;;92.73;;
10013;SDS011;45684;48.358;10.746;2023-06-10T02:52:48;99.50;;;95.40;;
10013;SDS011;45684;48.358;10.746;2023-06-10T02:55:16;100.80;;;96.73;;
10013;SDS011;45684;48.358;10.746;2023-06-10T02:57:50;105.93;;;101.63;;
10013;SDS011;45684;48.358;10.746;2023-06-10T03:00:19;120.37;;;115.43;;
10013;SDS011;45684;48.358;10.746;2023-06-10T03:02:49;112.00;;;107.47;;
10013;SDS011;45684;48.358;10.746;2023-06-10T03:05:22;106.10;;;101.80;;
10013;SDS011;45684;48.358;10.746;2023-06-10T03:07:52;119.63;;;114.83;;
10013;SDS011;45684;48.358;10.746;2023-06-10T03:10:21;124.07;;;119.03;;
10013;SDS011;45684;48.358;10.746;2023-06-10T03:12:49;146.33;;;140.57;;
10013;SDS011;45684;48.358;10.746;2023-06-10T03:15:17;131.43;;;126.33;;
10013;SDS011;45684;48.358;10.746;2023-06-10T03:17:47;134.83;;;129.37;;
10013;SDS011;45684;48.358;10.746;2023-06-10T03:20:16;136.87;;;131.20;;
10013;SDS011;45684;48.358;10.746;2023-06-10T03:22:45;146.70;;;140.93;;
10013;SDS011;45684;48.358;10.746;2023-06-10T03:25:13;140.03;;;134.57;;
10013;SDS011;45684;48.358;10.746;2023-06-10T03:27:45;146.20;;;140.43;;
10013;SDS011;45684;48.358;10.746;2023-06-10T03:30:13;177.30;;;170.43;;
10013;SDS011;45684;48.358;10.746;2023-06-10T03:32:42;159.77;;;153.50;;
10013;SDS011;45684;48.358;10.746;2023-06-10T03:35:14;166.50;;;159.97;;
10013;SDS011;45684;48.358;10.746;2023-06-10T03:37:43;151.80;;;145.73;;
10013;SDS011;45684;48.358;10.746;2023-06-10T03:40:11;133.90;;;128.60;;
10013;SDS011;45684;48.358;10.746;2023-06-10T03:42:43;117.53;;;112.70;;
10013;SDS011;45684;48.358;10.746;2023-06-10T03:45:13;110.30;;;105.63;;
10013;SDS011;45684;48.358;10.746;2023-06-10T03:47:41;154.23;;;148.23;;
10013;SDS011;45684;48.358;10.746;2023-06-10T03:50:12;156.87;;;150.77;;
10013;SDS011;45684;48.358;10.746;2023-06-10T03:52:44;211.63;;;203.33;;
10013;SDS011;45684;48.358;10.746;2023-06-10T03:55:13;203.77;;;195.77;;
10013;SDS011;45684;48.358;10.746;2023-06-10T03:57:44;205.00;;;196.93;;
10013;SDS011;45684;48.358;10.746;2023-06-10T04:00:12;199.73;;;191.67;;
10013;SDS011;45684;48.358;10.746;2023-06-10T04:02:41;190.13;;;182.63;;
10013;SDS011;45684;48.358;10.746;2023-06-10T04:05:19;194.27;;;186.57;;
10013;SDS011;45684;48.358;10.746;2023-06-10T04:07:50;188.27;;;180.80;;
10013;SDS011;45684;48.358;10.746;2023-06-10T04:10:18;175.43;;;168.47;;
10013;SDS011;45684;48.358;10.746;2023-06-10T04:12:46;168.60;;;161.90;;
10013;SDS011;45684;48.358;10.746;2023-06-10T04:15:14;171.50;;;164.60;;
10013;SDS011;45684;48.358;10.746;2023-06-10T04:17:42;171.57;;;164.80;;
10013;SDS011;45684;48.358;10.746;2023-06-10T04:20:11;159.73;;;153.33;;
10013;SDS011;45684;48.358;10.746;2023-06-10T04:22:43;148.03;;;141.93;;
10013;SDS011;45684;48.358;10.746;2023-06-10T04:25:12;153.23;;;147.20;;
10013;SDS011;45684;48.358;10.746;2023-06-10T04:27:41;149.83;;;143.80;;
10013;SDS011;45684;48.358;10.746;2023-06-10T04:30:10;151.37;;;145.30;;
10013;SDS011;45684;48.358;10.746;2023-06-10T04:32:39;144.93;;;139.03;;
10013;SDS011;45684;48.358;10.746;2023-06-10T04:35:12;141.63;;;135.80;;
10013;SDS011;45684;48.358;10.746;2023-06-10T04:37:41;133.73;;;128.23;;
10013;SDS011;45684;48.358;10.746;2023-06-10T04:40:10;123.57;;;118.57;;
10013;SDS011;45684;48.358;10.746;2023-06-10T04:42:40;132.43;;;127.13;;
10013;SDS011;45684;48.358;10.746;2023-06-10T04:45:08;132.57;;;127.17;;
10013;SDS011;45684;48.358;10.746;2023-06-10T04:47:38;113.93;;;109.33;;
10013;SDS011;45684;48.358;10.746;2023-06-10T04:50:06;118.83;;;113.93;;
10013;SDS011;45684;48.358;10.746;2023-06-10T04:52:35;136.23;;;130.73;;
10013;SDS011;45684;48.358;10.746;2023-06-10T04:55:03;131.93;;;126.57;;
10013;SDS011;45684;48.358;10.746;2023-06-10T04:57:32;125.83;;;120.63;;
10013;SDS011;45684;48.358;10.746;2023-06-10T05:00:02;129.40;;;124.10;;
10013;SDS011;45684;48.358;10.746;2023-06-10T05:02:32;122.03;;;116.93;;
10013;SDS011;45684;48.358;10.746;2023-06-10T05:05:00;117.37;;;112.53;;
10013;SDS011;45684;48.358;10.746;2023-06-10T05:07:27;90.67;;;86.80;;
10013;SDS011;45684;48.358;10.746;2023-06-10T05:09:55;98.47;;;94.37;;
10013;SDS011;45684;48.358;10.746;2023-06-10T05:12:23;89.47;;;85.77;;
10013;SDS011;45684;48.358;10.746;2023-06-10T05:14:51;87.53;;;83.77;;
10013;SDS011;45684;48.358;10.746;2023-06-10T05:17:20;105.83;;;101.53;;
10013;SDS011;45684;48.358;10.746;2023-06-10T05:19:48;111.87;;;107.33;;
10013;SDS011;45684;48.358;10.746;2023-06-10T05:22:16;105.87;;;101.50;;
10013;SDS011;45684;48.358;10.746;2023-06-10T05:24:44;115.20;;;110.50;;
10013;SDS011;45684;48.358;10.746;2023-06-10T05:27:12;115.80;;;111.10;;
10013;SDS011;45684;48.358;10.746;2023-06-10T05:29:40;117.87;;;112.93;;
10013;SDS011;45684;48.358;10.746;2023-06-10T05:32:08;84.90;;;81.23;;
10013;SDS011;45684;48.358;10.746;2023-06-10T05:34:37;92.87;;;89.00;;
10013;SDS011;45684;48.358;10.746;2023-06-10T05:37:05;94.20;;;90.20;;
10013;SDS011;45684;48.358;10.746;2023-06-10T05:39:33;112.43;;;107.83;;
10013;SDS011;45684;48.358;10.746;2023-06-10T05:42:04;109.37;;;104.87;;
10013;SDS011;45684;48.358;10.746;2023-06-10T05:44:33;113.07;;;108.27;;
10013;SDS011;45684;48.358;10.746;2023-06-10T05:47:01;112.93;;;108.33;;
10013;SDS011;45684;48.358;10.746;2023-06-10T05:49:29;113.00;;;108.10;;
10013;SDS011;45684;48.358;10.746;2023-06-10T05:51:58;96.63;;;92.40;;
10013;SDS011;45684;48.358;10.746;2023-06-10T05:54:26;111.83;;;107.13;;
10013;SDS011;45684;48.358;10.746;2023-06-10T05:56:55;114.87;;;110.07;;
10013;SDS011;45684;48.358;10.746;2023-06-10T05:59:23;105.77;;;101.37;;
10013;SDS011;45684;48.358;10.746;2023-06-10T06:01:51;74.80;;;71.37;;
10013;SDS011;45684;48.358;10.746;2023-06-10T06:04:19;131.40;;;126.03;;
10013;SDS011;45684;48.358;10.746;2023-06-10T06:06:47;139.03;;;133.53;;
10013;SDS011;45684;48.358;10.746;2023-06-10T06:09:16;135.27;;;129.80;;
10013;SDS011;45684;48.358;10.746;2023-06-10T06:11:44;122.57;;;117.73;;
10013;SDS011;45684;48.358;10.746;2023-06-10T06:14:12;121.57;;;116.70;;
10013;SDS011;45684;48.358;10.746;2023-06-10T06:16:40;101.73;;;97.60;;
10013;SDS011;45684;48.358;10.746;2023-06-10T06:19:08;107.97;;;103.53;;
10013;SDS011;45684;48.358;10.746;2023-06-10T06:21:37;59.07;;;56.27;;
10013;SDS011;45684;48.358;10.746;2023-06-10T06:24:05;77.93;;;74.73;;
10013;SDS011;45684;48.358;10.746;2023-06-10T06:26:35;98.33;;;94.33;;
10013;SDS011;45684;48.358;10.746;2023-06-10T06:29:03;91.37;;;87.67;;
10013;SDS011;45684;48.358;10.746;2023-06-10T06:31:31;113.90;;;109.37;;
10013;SDS011;45684;48.358;10.746;2023-06-10T06:33:59;53.67;;;51.30;;
10013;SDS011;45684;48.358;10.746;2023-06-10T06:36:26;59.90;;;57.30;;
10013;SDS011;45684;48.358;10.746;2023-06-10T06:38:54;119.87;;;114.97;;
10013;SDS011;45684;48.358;10.746;2023-06-10T06:41:23;70.27;;;67.37;;
10013;SDS011;45684;48.358;10.746;2023-06-10T06:43:53;49.87;;;47.63;;
10013;SDS011;45684;48.358;10.746;2023-06-10T06:46:29;48.33;;;45.90;;
10013;SDS011;45684;48.358;10.746;2023-06-10T06:48:57;51.17;;;48.83;;
10013;SDS011;45684;48.358;10.746;2023-06-10T06:51:25;49.80;;;47.50;;
10013;SDS011;45684;48.358;10.746;2023-06-10T06:53:54;65.67;;;62.83;;
10013;SDS011;45684;48.358;10.746;2023-06-10T06:56:25;58.07;;;55.63;;
10013;SDS011;45684;48.358;10.746;2023-06-10T06:58:54;51.07;;;48.73;;
10013;SDS011;45684;48.358;10.746;2023-06-10T07:01:23;45.00;;;43.00;;
10013;SDS011;45684;48.358;10.746;2023-06-10T07:03:51;43.63;;;41.70;;
10013;SDS011;45684;48.358;10.746;2023-06-10T07:06:19;58.60;;;55.93;;
10013;SDS011;45684;48.358;10.746;2023-06-10T07:08:48;47.73;;;45.50;;
10013;SDS011;45684;48.358;10.746;2023-06-10T07:11:17;56.17;;;53.80;;
10013;SDS011;45684;48.358;10.746;2023-06-10T07:13:45;54.37;;;51.97;;
10013;SDS011;45684;48.358;10.746;2023-06-10T07:16:15;39.10;;;37.30;;
10013;SDS011;45684;48.358;10.746;2023-06-10T07:18:42;37.53;;;35.83;;
10013;SDS011;45684;48.358;10.746;2023-06-10T07:21:11;50.77;;;48.57;;
10013;SDS011;45684;48.358;10.746;2023-06-10T07:23:41;19.93;;;18.83;;
10013;SDS011;45684;48.358;10.746;2023-06-10T07:26:09;13.13;;;12.33;;
10013;SDS011;45684;48.358;10.746;2023-06-10T07:28:37;12.60;;;11.83;;
10013;SDS011;45684;48.358;10.746;2023-06-10T07:31:05;14.47;;;13.67;;
10013;SDS011;45684;48.358;10.746;2023-06-10T07:33:36;13.00;;;12.30;;
10013;SDS011;45684;48.358;10.746;2023-06-10T07:36:05;13.43;;;12.67;;
10013;SDS011;45684;48.358;10.746;2023-06-10T07:38:33;13.43;;;12.67;;
10013;SDS011;45684;48.358;10.746;2023-06-10T07:41:01;14.23;;;13.43;;
10013;SDS011;45684;48.358;10.746;2023-06-10T07:43:29;11.70;;;11.00;;
10013;SDS011;45684;48.358;10.746;2023-06-10T07:45:57;13.23;;;12.47;;
10013;SDS011;45684;48.358;10.746;2023-06-10T07:48:25;15.00;;;14.20;;
10013;SDS011;45684;48.358;10.746;2023-06-10T07:50:55;12.30;;;11.50;;
10013;SDS011;45684;48.358;10.746;2023-06-10T07:53:22;10.40;;;9.70;;
10013;SDS011;45684;48.358;10.746;2023-06-10T07:55:50;11.00;;;10.37;;
10013;SDS011;45684;48.358;10.746;2023-06-10T07:58:18;14.10;;;13.33;;
10013;SDS011;45684;48.358;10.746;2023-06-10T08:00:46;10.50;;;9.80;;
10013;SDS011;45684;48.358;10.746;2023-06-10T08:03:14;7.93;;;7.33;;
10013;SDS011;45684;48.358;10.746;2023-06-10T08:05:42;7.80;;;7.30;;
10013;SDS011;45684;48.358;10.746;2023-06-10T08:08:12;8.03;;;7.20;;
10013;SDS011;45684;48.358;10.746;2023-06-10T08:10:40;7.63;;;7.13;;
10013;SDS011;45684;48.358;10.746;2023-06-10T08:13:08;7.37;;;6.87;;
10013;SDS011;45684;48.358;10.746;2023-06-10T08:15:36;8.07;;;7.47;;
10013;SDS011;45684;48.358;10.746;2023-06-10T08:18:04;7.63;;;7.07;;
10013;SDS011;45684;48.358;10.746;2023-06-10T08:20:32;9.20;;;8.40;;
10013;SDS011;45684;48.358;10.746;2023-06-10T08:22:59;8.70;;;8.10;;
10013;SDS011;45684;48.358;10.746;2023-06-10T08:25:29;7.97;;;7.37;;
10013;SDS011;45684;48.358;10.746;2023-06-10T08:27:56;7.80;;;7.30;;
10013;SDS011;45684;48.358;10.746;2023-06-10T08:30:24;8.27;;;7.65;;
10013;SDS011;45684;48.358;10.746;2023-06-10T08:32:52;7.95;;;7.45;;
10013;SDS011;45684;48.358;10.746;2023-06-10T08:35:20;7.75;;;7.25;;
10013;SDS011;45684;48.358;10.746;2023-06-10T08:37:48;7.70;;;7.10;;
10013;SDS011;45684;48.358;10.746;2023-06-10T08:40:16;6.40;;;6.00;;
10013;SDS011;45684;48.358;10.746;2023-06-10T08:42:48;7.05;;;6.47;;
10013;SDS011;45684;48.358;10.746;2023-06-10T08:45:20;6.85;;;6.35;;
10013;SDS011;45684;48.358;10.746;2023-06-10T08:47:50;6.82;;;6.32;;
10013;SDS011;45684;48.358;10.746;2023-06-10T08:50:21;6.82;;;6.32;;
10013;SDS011;45684;48.358;10.746;2023-06-10T08:52:50;5.95;;;5.55;;
10013;SDS011;45684;48.358;10.746;2023-06-10T08:55:23;8.07;;;5.82;;
10013;SDS011;45684;48.358;10.746;2023-06-10T08:58:00;6.20;;;5.80;;
10013;SDS011;45684;48.358;10.746;2023-06-10T09:00:29;6.28;;;5.88;;
10013;SDS011;45684;48.358;10.746;2023-06-10T09:02:59;6.15;;;5.75;;
10013;SDS011;45684;48.358;10.746;2023-06-10T09:05:31;5.80;;;5.40;;
10013;SDS011;45684;48.358;10.746;2023-06-10T09:08:01;6.20;;;5.80;;
10013;SDS011;45684;48.358;10.746;2023-06-10T09:10:29;6.78;;;6.28;;
10013;SDS011;45684;48.358;10.746;2023-06-10T09:12:57;6.95;;;6.47;;
10013;SDS011;45684;48.358;10.746;2023-06-10T09:15:26;7.25;;;6.65;;
10013;SDS011;45684;48.358;10.746;2023-06-10T09:17:54;7.00;;;6.50;;
10013;SDS011;45684;48.358;10.746;2023-06-10T09:20:22;7.68;;;7.07;;
10013;SDS011;45684;48.358;10.746;2023-06-10T09:22:50;6.95;;;6.45;;
10013;SDS011;45684;48.358;10.746;2023-06-10T09:25:18;5.85;;;5.55;;
10013;SDS011;45684;48.358;10.746;2023-06-10T09:27:46;6.43;;;5.95;;
10013;SDS011;45684;48.358;10.746;2023-06-10T09:30:24;6.65;;;6.25;;
10013;SDS011;45684;48.358;10.746;2023-06-10T09:32:55;5.82;;;5.43;;
10013;SDS011;45684;48.358;10.746;2023-06-10T09:35:24;7.18;;;6.20;;
10013;SDS011;45684;48.358;10.746;2023-06-10T09:37:53;6.00;;;5.60;;
10013;SDS011;45684;48.358;10.746;2023-06-10T09:40:22;5.72;;;5.32;;
10013;SDS011;45684;48.358;10.746;2023-06-10T09:42:52;6.63;;;6.13;;
10013;SDS011;45684;48.358;10.746;2023-06-10T09:45:21;5.60;;;5.30;;
10013;SDS011;45684;48.358;10.746;2023-06-10T09:47:51;6.50;;;6.05;;
10013;SDS011;45684;48.358;10.746;2023-06-10T09:50:21;6.30;;;5.90;;
10013;SDS011;45684;48.358;10.746;2023-06-10T09:52:50;6.22;;;5.82;;
10013;SDS011;45684;48.358;10.746;2023-06-10T09:55:18;6.00;;;5.60;;
10013;SDS011;45684;48.358;10.746;2023-06-10T09:57:48;6.10;;;5.65;;
10013;SDS011;45684;48.358;10.746;2023-06-10T10:00:17;6.13;;;5.63;;
10013;SDS011;45684;48.358;10.746;2023-06-10T10:02:46;6.45;;;5.95;;
10013;SDS011;45684;48.358;10.746;2023-06-10T10:05:16;6.32;;;5.93;;
10013;SDS011;45684;48.358;10.746;2023-06-10T10:07:47;5.75;;;5.40;;
10013;SDS011;45684;48.358;10.746;2023-06-10T10:10:15;5.20;;;4.90;;
10013;SDS011;45684;48.358;10.746;2023-06-10T10:12:45;5.53;;;5.13;;
10013;SDS011;45684;48.358;10.746;2023-06-10T10:15:15;5.85;;;5.45;;
10013;SDS011;45684;48.358;10.746;2023-06-10T10:17:45;6.10;;;5.70;;
10013;SDS011;45684;48.358;10.746;2023-06-10T10:20:17;5.65;;;5.35;;
10013;SDS011;45684;48.358;10.746;2023-06-10T10:22:51;6.03;;;5.53;;
10013;SDS011;45684;48.358;10.746;2023-06-10T10:25:24;5.88;;;5.47;;
10013;SDS011;45684;48.358;10.746;2023-06-10T10:27:57;6.00;;;5.60;;
10013;SDS011;45684;48.358;10.746;2023-06-10T10:30:30;5.47;;;5.07;;
10013;SDS011;45684;48.358;10.746;2023-06-10T10:33:04;5.30;;;5.00;;
10013;SDS011;45684;48.358;10.746;2023-06-10T10:35:36;5.35;;;5.05;;
10013;SDS011;45684;48.358;10.746;2023-06-10T10:38:06;5.95;;;5.53;;
10013;SDS011;45684;48.358;10.746;2023-06-10T10:40:36;6.00;;;5.60;;
10013;SDS011;45684;48.358;10.746;2023-06-10T10:43:05;5.78;;;5.38;;
10013;SDS011;45684;48.358;10.746;2023-06-10T10:45:34;6.20;;;5.70;;
10013;SDS011;45684;48.358;10.746;2023-06-10T10:48:04;5.85;;;5.53;;
10013;SDS011;45684;48.358;10.746;2023-06-10T10:50:38;5.88;;;5.45;;
10013;SDS011;45684;48.358;10.746;2023-06-10T10:53:08;5.93;;;5.50;;
10013;SDS011;45684;48.358;10.746;2023-06-10T10:55:36;5.70;;;5.30;;
10013;SDS011;45684;48.358;10.746;2023-06-10T10:58:04;6.00;;;5.60;;
10013;SDS011;45684;48.358;10.746;2023-06-10T11:00:34;5.30;;;5.00;;
10013;SDS011;45684;48.358;10.746;2023-06-10T11:03:05;5.50;;;5.20;;
10013;SDS011;45684;48.358;10.746;2023-06-10T11:05:38;6.57;;;6.13;;
10013;SDS011;45684;48.358;10.746;2023-06-10T11:08:09;5.97;;;5.50;;
10013;SDS011;45684;48.358;10.746;2023-06-10T11:10:37;5.63;;;5.22;;
10013;SDS011;45684;48.358;10.746;2023-06-10T11:13:06;5.70;;;5.30;;
10013;SDS011;45684;48.358;10.746;2023-06-10T11:15:39;5.70;;;5.40;;
10013;SDS011;45684;48.358;10.746;2023-06-10T11:18:11;5.50;;;5.20;;
10013;SDS011;45684;48.358;10.746;2023-06-10T11:23:38;5.40;;;5.05;;
10013;SDS011;45684;48.358;10.746;2023-06-10T11:26:17;5.30;;;5.00;;
10013;SDS011;45684;48.358;10.746;2023-06-10T11:29:08;5.50;;;5.10;;
10013;SDS011;45684;48.358;10.746;2023-06-10T11:31:40;5.75;;;5.30;;
10013;SDS011;45684;48.358;10.746;2023-06-10T11:34:09;5.30;;;5.00;;
10013;SDS011;45684;48.358;10.746;2023-06-10T11:36:38;5.40;;;5.10;;
10013;SDS011;45684;48.358;10.746;2023-06-10T11:39:10;5.03;;;4.70;;
10013;SDS011;45684;48.358;10.746;2023-06-10T11:41:38;5.03;;;4.72;;
10013;SDS011;45684;48.358;10.746;2023-06-10T11:44:08;4.90;;;4.60;;
10013;SDS011;45684;48.358;10.746;2023-06-10T11:46:36;5.18;;;4.88;;
10013;SDS011;45684;48.358;10.746;2023-06-10T11:49:05;5.32;;;5.03;;
10013;SDS011;45684;48.358;10.746;2023-06-10T11:51:34;5.25;;;4.95;;
10013;SDS011;45684;48.358;10.746;2023-06-10T11:54:03;5.38;;;5.07;;
10013;SDS011;45684;48.358;10.746;2023-06-10T11:56:32;5.63;;;5.32;;
10013;SDS011;45684;48.358;10.746;2023-06-10T11:59:01;6.07;;;5.68;;
10013;SDS011;45684;48.358;10.746;2023-06-10T12:01:32;6.28;;;5.93;;
10013;SDS011;45684;48.358;10.746;2023-06-10T12:04:05;5.65;;;5.15;;
10013;SDS011;45684;48.358;10.746;2023-06-10T12:06:38;6.78;;;6.30;;
10013;SDS011;45684;48.358;10.746;2023-06-10T12:09:07;5.78;;;5.43;;
10013;SDS011;45684;48.358;10.746;2023-06-10T12:11:54;5.80;;;5.25;;
10013;SDS011;45684;48.358;10.746;2023-06-10T12:17:36;5.40;;;5.00;;
10013;SDS011;45684;48.358;10.746;2023-06-10T12:20:06;5.68;;;5.25;;
10013;SDS011;45684;48.358;10.746;2023-06-10T12:22:35;5.30;;;4.93;;
10013;SDS011;45684;48.358;10.746;2023-06-10T12:25:05;5.40;;;5.10;;
10013;SDS011;45684;48.358;10.746;2023-06-10T12:27:36;5.72;;;5.38;;
10013;SDS011;45684;48.358;10.746;2023-06-10T12:30:06;6.07;;;5.57;;
10013;SDS011;45684;48.358;10.746;2023-06-10T12:32:34;6.07;;;5.68;;
10013;SDS011;45684;48.358;10.746;2023-06-10T12:35:04;6.40;;;5.80;;
10013;SDS011;45684;48.358;10.746;2023-06-10T12:37:33;6.20;;;5.70;;
10013;SDS011;45684;48.358;10.746;2023-06-10T12:40:05;6.15;;;5.65;;
10013;SDS011;45684;48.358;10.746;2023-06-10T12:42:36;6.80;;;6.22;;
10013;SDS011;45684;48.358;10.746;2023-06-10T12:45:05;6.20;;;5.82;;
10013;SDS011;45684;48.358;10.746;2023-06-10T12:47:37;5.88;;;5.57;;
10013;SDS011;45684;48.358;10.746;2023-06-10T12:50:06;6.00;;;5.70;;
10013;SDS011;45684;48.358;10.746;2023-06-10T12:52:35;6.07;;;5.65;;
10013;SDS011;45684;48.358;10.746;2023-06-10T12:55:03;5.75;;;5.35;;
10013;SDS011;45684;48.358;10.746;2023-06-10T12:57:33;6.20;;;5.70;;
10013;SDS011;45684;48.358;10.746;2023-06-10T13:00:02;5.63;;;5.32;;
10013;SDS011;45684;48.358;10.746;2023-06-10T13:02:34;5.57;;;5.28;;
10013;SDS011;45684;48.358;10.746;2023-06-10T13:05:02;5.55;;;5.25;;
10013;SDS011;45684;48.358;10.746;2023-06-10T13:07:30;5.45;;;5.10;;
10013;SDS011;45684;48.358;10.746;2023-06-10T13:09:59;5.50;;;5.18;;
10013;SDS011;45684;48.358;10.746;2023-06-10T13:12:27;5.50;;;5.20;;
10013;SDS011;45684;48.358;10.746;2023-06-10T13:15:13;6.10;;;5.50;;
10013;SDS011;45684;48.358;10.746;2023-06-10T13:17:42;5.60;;;5.30;;
10013;SDS011;45684;48.358;10.746;2023-06-10T13:20:10;5.40;;;5.10;;
10013;SDS011;45684;48.358;10.746;2023-06-10T13:22:38;5.68;;;5.28;;
10013;SDS011;45684;48.358;10.746;2023-06-10T13:25:06;5.35;;;5.03;;
10013;SDS011;45684;48.358;10.746;2023-06-10T13:27:35;5.32;;;4.93;;
10013;SDS011;45684;48.358;10.746;2023-06-10T13:30:05;5.70;;;5.25;;
10013;SDS011;45684;48.358;10.746;2023-06-10T13:32:36;5.20;;;4.90;;
10013;SDS011;45684;48.358;10.746;2023-06-10T13:35:04;5.47;;;5.18;;
10013;SDS011;45684;48.358;10.746;2023-06-10T13:37:34;5.30;;;5.00;;
10013;SDS011;45684;48.358;10.746;2023-06-10T13:40:03;4.88;;;4.57;;
10013;SDS011;45684;48.358;10.746;2023-06-10T13:42:31;5.53;;;5.13;;
10013;SDS011;45684;48.358;10.746;2023-06-10T13:44:59;5.43;;;5.13;;
10013;SDS011;45684;48.358;10.746;2023-06-10T13:47:29;5.07;;;4.68;;
10013;SDS011;45684;48.358;10.746;2023-06-10T13:50:01;5.50;;;5.00;;
10013;SDS011;45684;48.358;10.746;2023-06-10T13:52:29;5.22;;;4.80;;
10013;SDS011;45684;48.358;10.746;2023-06-10T13:54:57;5.15;;;4.75;;
10013;SDS011;45684;48.358;10.746;2023-06-10T13:57:25;5.40;;;4.75;;
10013;SDS011;45684;48.358;10.746;2023-06-10T13:59:53;5.35;;;4.95;;
10013;SDS011;45684;48.358;10.746;2023-06-10T14:02:22;5.07;;;4.78;;
10013;SDS011;45684;48.358;10.746;2023-06-10T14:04:50;4.60;;;4.40;;
10013;SDS011;45684;48.358;10.746;2023-06-10T14:07:19;4.90;;;4.60;;
10013;SDS011;45684;48.358;10.746;2023-06-10T14:09:47;4.78;;;4.40;;
10013;SDS011;45684;48.358;10.746;2023-06-10T14:12:17;4.68;;;4.35;;
10013;SDS011;45684;48.358;10.746;2023-06-10T14:14:45;5.30;;;5.00;;
10013;SDS011;45684;48.358;10.746;2023-06-10T14:17:13;5.15;;;4.85;;
10013;SDS011;45684;48.358;10.746;2023-06-10T14:19:41;4.65;;;4.38;;
10013;SDS011;45684;48.358;10.746;2023-06-10T14:22:09;4.88;;;4.47;;
10013;SDS011;45684;48.358;10.746;2023-06-10T14:24:38;4.50;;;4.20;;
10013;SDS011;45684;48.358;10.746;2023-06-10T14:27:06;4.53;;;4.28;;
10013;SDS011;45684;48.358;10.746;2023-06-10T14:29:34;4.35;;;4.13;;
10013;SDS011;45684;48.358;10.746;2023-06-10T14:32:02;4.55;;;4.25;;